Time;durP1;ratioP1;P1;durP2;ratioP2;P2;SDS_P1;SDS_P2;PMS_P1;PMS_P2;Temp;Humidity;BMP_temperature;BMP_pressure;BME280_temperature;BME280_humidity;BME280_pressure;Samples;Min_cycle;Max_cycle;Signal;HPM_P1;HPM_P2
2023/07/14 00:00:19;;;;;;;8.40;4.60;;;;;;;21.97;81.17;98720.80;107223;1257;72271;-39
2023/07/14 00:02:48;;;;;;;6.50;4.60;;;;;;;21.97;81.33;98718.55;107289;1257;60148;-39
2023/07/14 00:05:26;;;;;;;7.90;4.50;;;;;;;21.95;81.21;98714.15;107262;1257;60001;-39
2023/07/14 00:07:55;;;;;;;6.90;4.80;;;;;;;21.93;81.51;98713.52;107044;1257;73173;-39
2023/07/14 00:10:25;;;;;;;7.50;5.30;;;;;;;21.93;81.65;98701.08;107291;1257;67866;-39
2023/07/14 00:12:53;;;;;;;6.20;5.50;;;;;;;21.92;81.62;98698.40;107274;1257;72664;-39
2023/07/14 00:15:21;;;;;;;7.40;5.80;;;;;;;21.88;81.82;98693.91;107185;1258;60449;-39
2023/07/14 00:17:50;;;;;;;6.80;5.50;;;;;;;21.84;81.78;98693.73;107218;1258;59999;-39
2023/07/14 00:20:20;;;;;;;6.80;5.20;;;;;;;21.80;81.97;98690.18;107215;1257;71842;-39
2023/07/14 00:22:47;;;;;;;;;;;;;;;21.76;82.01;98694.61;107259;1260;67913;-39
2023/07/14 00:25:16;;;;;;;7.40;5.50;;;;;;;21.65;82.58;98688.05;107276;1263;72620;-39
2023/07/14 00:27:43;;;;;;;7.60;4.80;;;;;;;21.58;83.14;98683.90;107278;1258;60436;-39
2023/07/14 00:30:25;;;;;;;7.40;5.70;;;;;;;21.60;83.07;98677.84;107026;1256;60032;-39
2023/07/14 00:32:53;;;;;;;5.80;5.20;;;;;;;21.64;82.97;98676.88;107231;1257;73143;-39
2023/07/14 00:35:23;;;;;;;5.90;5.00;;;;;;;21.68;83.06;98677.54;107238;1258;67128;-39
2023/07/14 00:37:56;;;;;;;6.70;5.50;;;;;;;21.69;82.71;98675.94;107276;1262;71453;-39
2023/07/14 00:40:25;;;;;;;9.20;5.60;;;;;;;21.67;82.49;98678.43;107224;1257;60411;-39
2023/07/14 00:42:55;;;;;;;7.80;5.40;;;;;;;21.69;82.49;98675.38;107066;1260;60105;-39
2023/07/14 00:45:23;;;;;;;;;;;;;;;21.75;82.60;98672.65;107271;1257;73067;-39
2023/07/14 00:47:55;;;;;;;8.50;5.50;;;;;;;21.77;82.48;98668.48;107262;1256;67683;-39
2023/07/14 00:50:29;;;;;;;5.70;5.00;;;;;;;21.78;82.48;98662.18;107209;1257;72501;-39
2023/07/14 00:52:58;;;;;;;7.60;5.20;;;;;;;21.84;82.29;98659.27;107037;1257;60378;-39
2023/07/14 00:55:32;;;;;;;7.90;5.40;;;;;;;21.91;81.96;98655.00;107291;1257;60075;-39
2023/07/14 00:57:59;;;;;;;7.70;5.40;;;;;;;21.99;81.57;98656.60;107046;1262;71840;-39
2023/07/14 01:00:31;;;;;;;7.70;5.00;;;;;;;22.06;81.39;98657.98;107044;1262;67669;-39
2023/07/14 01:03:00;;;;;;;6.50;5.00;;;;;;;22.05;80.97;98661.19;107050;1263;72723;-39
2023/07/14 01:05:28;;;;;;;6.10;5.50;;;;;;;21.98;80.84;98659.40;107104;1260;61748;-38
2023/07/14 01:07:57;;;;;;;5.00;4.40;;;;;;;21.91;80.65;98654.98;107214;1263;59545;-39
2023/07/14 01:10:26;;;;;;;5.60;4.60;;;;;;;21.84;80.77;98657.38;106879;1265;73074;-39
2023/07/14 01:12:57;;;;;;;5.20;4.60;;;;;;;21.78;80.91;98658.02;107213;1257;66599;-39
2023/07/14 01:15:25;;;;;;;5.60;4.80;;;;;;;21.73;81.18;98662.28;107099;1260;72711;-39
2023/07/14 01:17:53;;;;;;;6.50;5.10;;;;;;;21.72;81.22;98665.70;107032;1262;61697;-39
2023/07/14 01:20:21;;;;;;;6.60;4.70;;;;;;;21.74;80.99;98669.21;107034;1263;59724;-39
2023/07/14 01:23:24;;;;;;;5.80;4.80;;;;;;;21.75;80.86;98667.96;107011;1263;71797;-39
2023/07/14 01:26:01;;;;;;;6.70;5.00;;;;;;;21.78;80.53;98676.53;107045;1263;67869;-39
2023/07/14 01:28:28;;;;;;;5.60;4.90;;;;;;;21.78;80.64;98687.12;107165;1262;71454;-39
2023/07/14 01:30:56;;;;;;;6.00;4.70;;;;;;;21.75;80.44;98686.56;106905;1257;59754;-39
2023/07/14 01:33:24;;;;;;;6.70;4.70;;;;;;;21.75;80.32;98695.64;106997;1263;60343;-39
2023/07/14 01:35:54;;;;;;;5.00;4.40;;;;;;;21.76;80.17;98686.38;107212;1263;73116;-39
2023/07/14 01:38:22;;;;;;;6.20;5.10;;;;;;;21.75;79.84;98687.98;107065;1263;66615;-39
2023/07/14 01:40:51;;;;;;;6.00;4.90;;;;;;;21.71;79.89;98689.48;107046;1263;71510;-39
2023/07/14 01:43:21;;;;;;;7.00;5.00;;;;;;;21.65;80.24;98688.11;107082;1260;60460;-39
2023/07/14 01:45:57;;;;;;;5.40;4.80;;;;;;;21.64;80.28;98683.48;107118;1258;59231;-39
2023/07/14 01:48:42;;;;;;;6.00;4.50;;;;;;;21.64;80.39;98684.23;107607;1254;73028;-38
2023/07/14 01:51:12;;;;;;;5.90;5.00;;;;;;;21.63;80.64;98681.97;107491;1256;67586;-39
2023/07/14 01:53:59;;;;;;;5.70;5.10;;;;;;;21.61;80.79;98674.89;107463;1254;72682;-38
2023/07/14 01:56:26;;;;;;;5.60;4.90;;;;;;;21.61;80.82;98672.53;107563;1254;61640;-39
2023/07/14 01:59:03;;;;;;;6.00;4.70;;;;;;;21.65;80.78;98677.48;107237;1253;60053;-39
2023/07/14 02:01:32;;;;;;;5.20;4.70;;;;;;;21.71;80.44;98680.97;107381;1254;71964;-39
2023/07/14 02:04:06;;;;;;;5.80;5.10;;;;;;;21.69;80.52;98689.72;107336;1254;66320;-39
2023/07/14 02:06:34;;;;;;;8.60;5.20;;;;;;;21.65;80.57;98692.05;107473;1260;70647;-39
2023/07/14 02:09:01;;;;;;;7.90;4.90;;;;;;;21.67;80.73;98692.71;107329;1254;60438;-39
2023/07/14 02:11:29;;;;;;;8.40;4.50;;;;;;;21.70;80.52;98698.80;107519;1254;59978;-39
2023/07/14 02:13:57;;;;;;;6.50;4.90;;;;;;;21.73;80.63;98701.55;107323;1254;71824;-40
2023/07/14 02:16:25;;;;;;;6.50;5.20;;;;;;;21.74;80.45;98702.70;107322;1254;67577;-39
2023/07/14 02:18:53;;;;;;;10.60;5.00;;;;;;;21.73;80.29;98710.64;107483;1254;73143;-39
2023/07/14 02:21:27;;;;;;;5.60;4.70;;;;;;;21.75;80.23;98717.57;107393;1255;60557;-39
2023/07/14 02:23:55;;;;;;;8.10;5.10;;;;;;;21.78;80.04;98713.29;107467;1254;59518;-39
2023/07/14 02:26:26;;;;;;;6.60;5.20;;;;;;;21.77;79.93;98708.05;107518;1253;73048;-39
2023/07/14 02:28:55;;;;;;;6.50;5.50;;;;;;;21.73;80.08;98706.61;107494;1259;66839;-39
2023/07/14 02:31:26;;;;;;;8.50;5.60;;;;;;;21.69;80.26;98697.60;107534;1256;72727;-39
2023/07/14 02:33:54;;;;;;;6.00;5.40;;;;;;;21.68;80.33;98701.28;107478;1254;60395;-39
2023/07/14 02:36:44;;;;;;;7.90;5.60;;;;;;;21.67;80.20;98700.99;107510;1254;60207;-39
2023/07/14 02:39:12;;;;;;;8.00;5.50;;;;;;;21.66;80.22;98708.89;107511;1255;73040;-39
2023/07/14 02:41:40;;;;;;;9.80;6.10;;;;;;;21.61;80.54;98704.81;107510;1253;66431;-40
2023/07/14 02:44:11;;;;;;;6.50;5.60;;;;;;;21.56;80.40;98705.55;107501;1254;71376;-39
2023/07/14 02:46:43;;;;;;;7.30;5.80;;;;;;;21.58;80.64;98698.96;107342;1254;61709;-39
2023/07/14 02:49:10;;;;;;;7.70;6.20;;;;;;;21.62;80.35;98698.39;107567;1255;59707;-38
2023/07/14 02:51:38;;;;;;;9.30;6.10;;;;;;;21.66;80.57;98705.04;107366;1254;73040;-39
2023/07/14 02:54:06;;;;;;;11.30;6.80;;;;;;;21.69;80.41;98705.97;107505;1254;67889;-39
2023/07/14 02:56:33;;;;;;;7.90;6.50;;;;;;;21.69;80.35;98709.65;107371;1254;72733;-39
2023/07/14 02:59:02;;;;;;;10.80;5.80;;;;;;;21.72;80.30;98706.93;107320;1258;60414;-39
2023/07/14 03:01:32;;;;;;;10.70;7.00;;;;;;;21.77;80.09;98711.27;107538;1254;60048;-38
2023/07/14 03:04:00;;;;;;;7.80;6.90;;;;;;;21.77;79.56;98720.56;107320;1254;73035;-38
2023/07/14 03:06:28;;;;;;;8.40;7.20;;;;;;;21.74;79.51;98726.05;107435;1254;67897;-38
2023/07/14 03:08:56;;;;;;;10.20;7.10;;;;;;;21.69;79.50;98729.60;107405;1257;71457;-39
2023/07/14 03:11:23;;;;;;;11.30;7.10;;;;;;;21.67;79.33;98734.41;107478;1254;60632;-38
2023/07/14 03:13:52;;;;;;;8.60;7.30;;;;;;;21.66;78.90;98734.67;107417;1258;60405;-38
2023/07/14 03:16:20;;;;;;;10.90;8.10;;;;;;;21.61;78.61;98737.15;107473;1253;72554;-38
2023/07/14 03:18:48;;;;;;;9.90;8.10;;;;;;;21.53;78.23;98740.42;107389;1260;67893;-39
2023/07/14 03:21:16;;;;;;;12.00;7.40;;;;;;;21.43;78.36;98748.10;107212;1264;72970;-39
2023/07/14 03:23:44;;;;;;;7.90;7.10;;;;;;;21.38;78.11;98755.14;107395;1256;61746;-38
2023/07/14 03:26:12;;;;;;;9.20;7.60;;;;;;;21.34;77.67;98756.23;107473;1253;60167;-38
2023/07/14 03:28:39;;;;;;;9.70;8.20;;;;;;;21.28;78.04;98754.16;107300;1254;74295;-38
2023/07/14 03:31:08;;;;;;;10.40;8.50;;;;;;;21.29;77.92;98755.70;107558;1254;66600;-38
2023/07/14 03:33:37;;;;;;;9.00;8.10;;;;;;;21.24;77.80;98754.90;107374;1254;72950;-37
2023/07/14 03:36:08;;;;;;;11.00;8.00;;;;;;;21.20;77.11;98759.04;107472;1257;61662;-38
2023/07/14 03:38:41;;;;;;;9.90;8.10;;;;;;;21.15;77.24;98761.89;107438;1254;60444;-39
2023/07/14 03:41:10;;;;;;;9.90;8.50;;;;;;;21.11;77.19;98767.96;107241;1255;73067;-39
2023/07/14 03:43:39;;;;;;;10.70;8.20;;;;;;;21.06;76.88;98772.35;107514;1255;66610;-38
2023/07/14 03:46:07;;;;;;;8.70;7.80;;;;;;;20.98;77.29;98773.70;107435;1259;71919;-39
2023/07/14 03:48:35;;;;;;;9.00;7.80;;;;;;;20.93;77.05;98775.66;107387;1254;61209;-39
2023/07/14 03:51:03;;;;;;;9.70;7.80;;;;;;;20.92;77.01;98782.07;107211;1254;60511;-39
2023/07/14 03:53:31;;;;;;;12.20;7.90;;;;;;;20.89;76.79;98787.21;107434;1254;72566;-38
2023/07/14 03:55:59;;;;;;;10.60;7.50;;;;;;;20.83;76.60;98792.92;107570;1253;67978;-39
2023/07/14 03:58:28;;;;;;;10.90;7.80;;;;;;;20.72;76.62;98800.66;107273;1260;71437;-39
2023/07/14 04:01:00;;;;;;;9.90;8.10;;;;;;;20.64;76.85;98801.88;107425;1254;60415;-39
2023/07/14 04:03:28;;;;;;;11.00;7.90;;;;;;;20.56;76.60;98796.13;107318;1254;60297;-38
2023/07/14 04:05:55;;;;;;;8.60;7.70;;;;;;;20.49;76.82;98800.80;107404;1260;73820;-38
2023/07/14 04:08:35;;;;;;;9.30;8.10;;;;;;;20.42;76.61;98803.16;107365;1253;66307;-39
2023/07/14 04:11:03;;;;;;;11.70;7.60;;;;;;;20.34;76.70;98800.85;107363;1254;72707;-39
2023/07/14 04:13:32;;;;;;;10.30;7.40;;;;;;;20.30;76.71;98800.33;107245;1254;60397;-39
2023/07/14 04:15:59;;;;;;;8.90;7.40;;;;;;;20.30;76.85;98797.83;107552;1254;60520;-39
2023/07/14 04:18:27;;;;;;;10.00;8.10;;;;;;;20.28;76.82;98798.88;107430;1254;73891;-39
2023/07/14 04:20:59;;;;;;;9.10;8.10;;;;;;;20.29;77.04;98792.73;107468;1254;67823;-39
2023/07/14 04:23:27;;;;;;;12.50;7.70;;;;;;;20.28;76.80;98790.01;107337;1255;72702;-39
2023/07/14 04:25:55;;;;;;;9.50;7.60;;;;;;;20.26;76.76;98790.86;107508;1254;61716;-39
2023/07/14 04:28:22;;;;;;;10.90;7.40;;;;;;;20.26;76.67;98796.03;107388;1254;59256;-39
2023/07/14 04:30:57;;;;;;;9.40;7.40;;;;;;;20.31;76.50;98807.10;107480;1254;72400;-40
2023/07/14 04:33:25;;;;;;;8.30;7.50;;;;;;;20.30;76.21;98817.72;107398;1253;67594;-38
2023/07/14 04:35:53;;;;;;;10.30;7.30;;;;;;;20.30;76.09;98816.86;107339;1258;71437;-39
2023/07/14 04:38:22;;;;;;;11.00;7.60;;;;;;;20.31;75.69;98813.39;107383;1253;61830;-38
2023/07/14 04:40:50;;;;;;;8.70;7.20;;;;;;;20.33;75.56;98815.67;107473;1259;60243;-39
2023/07/14 04:43:18;;;;;;;9.00;7.00;;;;;;;20.37;75.45;98820.04;107461;1254;73607;-39
2023/07/14 04:45:46;;;;;;;11.50;6.90;;;;;;;20.38;74.66;98826.39;107348;1254;66831;-39
2023/07/14 04:48:16;;;;;;;8.30;7.40;;;;;;;20.36;74.53;98820.62;107344;1254;72675;-39
2023/07/14 04:50:45;;;;;;;9.00;7.10;;;;;;;20.36;74.31;98828.88;107293;1257;60460;-38
2023/07/14 04:53:13;;;;;;;8.80;6.00;;;;;;;20.38;73.61;98825.84;107423;1254;60306;-38
2023/07/14 04:55:44;;;;;;;8.80;6.60;;;;;;;20.39;72.91;98828.79;107565;1251;73824;-38
2023/07/14 04:58:15;;;;;;;9.20;6.40;;;;;;;20.35;72.38;98835.20;107520;1255;67624;-38
2023/07/14 05:00:45;;;;;;;7.90;6.90;;;;;;;20.29;72.35;98836.69;107561;1251;72660;-38
2023/07/14 05:03:12;;;;;;;8.50;6.00;;;;;;;20.26;72.60;98836.46;107597;1254;61690;-38
2023/07/14 05:05:41;;;;;;;6.90;5.90;;;;;;;20.28;72.14;98837.13;107622;1251;60335;-38
2023/07/14 05:08:08;;;;;;;8.60;6.10;;;;;;;20.33;71.99;98838.34;107540;1257;72122;-38
2023/07/14 05:10:38;;;;;;;7.90;6.20;;;;;;;20.39;71.84;98842.09;107477;1254;67627;-38
2023/07/14 05:13:06;;;;;;;9.60;6.50;;;;;;;20.41;71.59;98839.98;107544;1254;71407;-38
2023/07/14 05:15:34;;;;;;;9.40;6.70;;;;;;;20.42;71.37;98844.09;107517;1254;60376;-38
2023/07/14 05:18:02;;;;;;;12.20;6.30;;;;;;;20.39;71.68;98848.61;107533;1251;60351;-38
2023/07/14 05:20:29;;;;;;;6.60;5.30;;;;;;;20.44;71.12;98851.55;107531;1254;74133;-38
2023/07/14 05:22:57;;;;;;;10.10;6.20;;;;;;;20.50;70.23;98860.11;107564;1254;66821;-38
2023/07/14 05:25:25;;;;;;;7.30;6.20;;;;;;;20.52;70.34;98859.59;107275;1251;72690;-38
2023/07/14 05:27:52;;;;;;;8.80;6.60;;;;;;;20.53;70.37;98859.33;107422;1254;60721;-39
2023/07/14 05:30:31;;;;;;;8.70;6.30;;;;;;;20.53;70.39;98867.95;107641;1251;60508;-40
2023/07/14 05:33:09;;;;;;;7.90;5.70;;;;;;;20.55;69.81;98870.21;107713;1251;72584;-41
2023/07/14 05:35:39;;;;;;;6.20;5.20;;;;;;;20.57;69.15;98874.95;107705;1251;66362;-39
2023/07/14 05:38:06;;;;;;;9.70;5.50;;;;;;;20.53;68.76;98873.56;107619;1257;71403;-39
2023/07/14 05:40:34;;;;;;;7.80;5.60;;;;;;;20.48;68.78;98880.48;107647;1251;60392;-40
2023/07/14 05:43:17;;;;;;;6.30;5.30;;;;;;;20.41;68.86;98874.21;107651;1251;60946;-39
2023/07/14 05:45:47;;;;;;;7.50;5.20;;;;;;;20.33;68.97;98873.11;107536;1257;73843;-39
2023/07/14 05:48:17;;;;;;;6.70;5.50;;;;;;;20.29;69.17;98881.54;107541;1251;67630;-39
2023/07/14 05:50:45;;;;;;;11.20;5.60;;;;;;;20.28;69.13;98885.64;107501;1254;72709;-38
2023/07/14 05:53:14;;;;;;;5.90;5.00;;;;;;;20.23;69.27;98891.14;107547;1253;60408;-39
2023/07/14 05:55:42;;;;;;;6.40;5.00;;;;;;;20.19;69.22;98886.70;107616;1257;60312;-41
2023/07/14 05:58:10;;;;;;;7.30;5.00;;;;;;;20.10;69.86;98889.77;107433;1251;74103;-38
2023/07/14 06:00:39;;;;;;;5.20;4.40;;;;;;;20.02;70.90;98888.02;107482;1251;68882;-38
2023/07/14 06:03:12;;;;;;;8.40;5.70;;;;;;;20.00;71.39;98884.68;107313;1254;75139;-38
2023/07/14 06:05:40;;;;;;;8.70;5.60;;;;;;;19.99;72.10;98884.96;107585;1253;60584;-38
2023/07/14 06:08:08;;;;;;;6.80;5.50;;;;;;;19.94;72.31;98882.27;107588;1251;60683;-38
2023/07/14 06:10:35;;;;;;;8.50;5.50;;;;;;;19.90;72.85;98880.63;107530;1251;72654;-38
2023/07/14 06:13:03;;;;;;;7.20;5.30;;;;;;;19.89;72.69;98880.73;107587;1252;67531;-38
2023/07/14 06:15:30;;;;;;;7.70;5.10;;;;;;;19.86;73.19;98880.58;107613;1251;72714;-38
2023/07/14 06:17:59;;;;;;;8.00;5.40;;;;;;;19.87;73.60;98882.67;107594;1251;59668;-38
2023/07/14 06:20:26;;;;;;;9.50;5.30;;;;;;;19.87;73.77;98884.17;107620;1251;60015;-38
2023/07/14 06:22:58;;;;;;;10.30;5.60;;;;;;;19.87;73.90;98887.16;107590;1251;73861;-38
2023/07/14 06:25:26;;;;;;;7.30;5.40;;;;;;;19.90;74.04;98890.21;107526;1251;66868;-38
2023/07/14 06:27:53;;;;;;;9.10;5.80;;;;;;;19.93;74.15;98891.85;107582;1251;72670;-38
2023/07/14 06:30:23;;;;;;;8.40;5.80;;;;;;;19.95;74.17;98895.48;107585;1253;60412;-38
2023/07/14 06:32:51;;;;;;;8.70;5.40;;;;;;;19.99;74.35;98897.59;107581;1257;60302;-38
2023/07/14 06:35:19;;;;;;;7.00;5.50;;;;;;;20.01;74.35;98895.52;107592;1251;74227;-38
2023/07/14 06:37:47;;;;;;;8.50;5.70;;;;;;;20.08;74.51;98898.32;107643;1251;67793;-38
2023/07/14 06:40:15;;;;;;;6.80;5.30;;;;;;;20.17;74.50;98907.59;107582;1251;71385;-38
2023/07/14 06:42:43;;;;;;;7.00;5.30;;;;;;;20.25;74.35;98913.19;107601;1257;60312;-38
2023/07/14 06:45:10;;;;;;;10.00;5.60;;;;;;;20.29;73.91;98917.33;107646;1251;60354;-38
2023/07/14 06:47:38;;;;;;;7.00;5.50;;;;;;;20.30;73.43;98922.58;107615;1251;73857;-38
2023/07/14 06:50:07;;;;;;;9.10;5.20;;;;;;;20.33;72.94;98929.58;107625;1251;67619;-38
2023/07/14 06:52:38;;;;;;;8.90;5.40;;;;;;;20.36;72.91;98929.40;107696;1257;71451;-38
2023/07/14 06:55:07;;;;;;;7.90;5.10;;;;;;;20.39;72.72;98936.02;107550;1254;60479;-38
2023/07/14 06:57:35;;;;;;;9.60;5.30;;;;;;;20.43;73.01;98943.16;107715;1251;60248;-38
2023/07/14 07:00:07;;;;;;;10.40;5.00;;;;;;;20.48;73.03;98945.29;107655;1251;73776;-38
2023/07/14 07:02:35;;;;;;;7.30;4.90;;;;;;;20.57;72.96;98946.63;107605;1251;67581;-38
2023/07/14 07:05:06;;;;;;;6.60;4.70;;;;;;;20.72;72.73;98954.21;107593;1251;72749;-38
2023/07/14 07:07:34;;;;;;;6.70;4.70;;;;;;;20.84;72.09;98953.71;107673;1257;60180;-38
2023/07/14 07:10:02;;;;;;;9.10;5.00;;;;;;;20.91;71.71;98952.33;107546;1257;60319;-38
2023/07/14 07:12:29;;;;;;;7.80;5.00;;;;;;;21.00;71.48;98961.44;107565;1251;73828;-38
2023/07/14 07:14:57;;;;;;;10.20;5.00;;;;;;;21.06;71.54;98964.40;107526;1251;66680;-38
2023/07/14 07:17:24;;;;;;;5.70;4.80;;;;;;;21.18;71.34;98969.58;107646;1251;72691;-38
2023/07/14 07:19:52;;;;;;;4.90;4.30;;;;;;;21.35;71.40;98976.23;107744;1251;60454;-38
2023/07/14 07:22:20;;;;;;;6.90;4.50;;;;;;;21.51;70.85;98980.77;107592;1251;61060;-38
2023/07/14 07:24:47;;;;;;;5.60;4.70;;;;;;;21.65;70.41;98981.02;107612;1251;73930;-38
2023/07/14 07:27:15;;;;;;;5.50;4.40;;;;;;;21.79;69.52;98981.36;107633;1251;68333;-38
2023/07/14 07:29:42;;;;;;;6.10;4.50;;;;;;;21.88;68.26;98982.25;107656;1251;72728;-38
2023/07/14 07:32:10;;;;;;;8.10;4.40;;;;;;;21.95;68.02;98976.13;107630;1251;61697;-38
2023/07/14 07:34:39;;;;;;;6.60;4.20;;;;;;;22.03;67.36;98975.83;107666;1251;60488;-38
2023/07/14 07:37:10;;;;;;;7.10;4.70;;;;;;;22.10;66.31;98978.71;107662;1251;73421;-38
2023/07/14 07:39:38;;;;;;;6.10;4.50;;;;;;;22.18;65.85;98988.79;107639;1256;67040;-38
2023/07/14 07:42:08;;;;;;;6.30;4.90;;;;;;;22.28;65.33;98996.77;107669;1254;74963;-39
2023/07/14 07:44:36;;;;;;;6.20;4.40;;;;;;;22.44;64.69;99000.35;107479;1251;62067;-38
2023/07/14 07:47:04;;;;;;;5.50;4.60;;;;;;;22.61;64.22;99004.07;107595;1251;60357;-38
2023/07/14 07:49:32;;;;;;;6.50;4.10;;;;;;;22.73;63.34;99001.55;107585;1251;73875;-38
2023/07/14 07:52:00;;;;;;;4.90;3.90;;;;;;;22.85;62.28;98999.75;107540;1253;67855;-38
2023/07/14 07:54:27;;;;;;;8.10;4.50;;;;;;;23.00;61.06;99003.23;107538;1254;72733;-39
2023/07/14 07:56:55;;;;;;;6.40;4.50;;;;;;;23.12;60.78;99003.52;107587;1253;60904;-38
2023/07/14 07:59:23;;;;;;;5.10;4.20;;;;;;;23.21;60.03;99005.13;107418;1254;60577;-38
2023/07/14 08:01:50;;;;;;;5.60;4.20;;;;;;;23.32;60.88;99005.98;107395;1254;74338;-39
2023/07/14 08:04:18;;;;;;;7.80;4.10;;;;;;;23.46;61.57;99006.56;107519;1254;67901;-40
2023/07/14 08:06:47;;;;;;;7.20;4.30;;;;;;;23.58;59.65;99009.17;107477;1254;72725;-40
2023/07/14 08:09:18;;;;;;;6.50;3.70;;;;;;;23.66;59.03;99011.29;107473;1254;60345;-41
2023/07/14 08:11:55;;;;;;;6.20;4.40;;;;;;;23.72;58.15;99014.76;107394;1254;60550;-39
2023/07/14 08:14:23;;;;;;;5.70;4.30;;;;;;;23.79;58.97;99011.34;107531;1253;73794;-38
2023/07/14 08:16:50;;;;;;;5.40;3.80;;;;;;;23.85;58.08;99010.39;107462;1253;66282;-38
2023/07/14 08:19:18;;;;;;;5.50;3.60;;;;;;;23.90;58.40;99005.83;107517;1254;72703;-39
2023/07/14 08:21:45;;;;;;;5.70;3.90;;;;;;;23.97;59.00;99005.23;107410;1254;60074;-39
2023/07/14 08:24:13;;;;;;;6.00;4.10;;;;;;;24.05;58.99;99007.92;107408;1254;60422;-39
2023/07/14 08:26:41;;;;;;;6.10;3.90;;;;;;;24.12;58.61;99004.27;107214;1253;72582;-39
2023/07/14 08:29:09;;;;;;;5.00;3.50;;;;;;;24.21;57.97;99010.73;107227;1254;67571;-39
2023/07/14 08:31:36;;;;;;;5.60;3.50;;;;;;;24.29;57.47;99018.17;107289;1254;73022;-39
2023/07/14 08:34:04;;;;;;;4.00;3.40;;;;;;;24.38;57.21;99024.19;107327;1254;60482;-39
2023/07/14 08:36:32;;;;;;;4.70;3.30;;;;;;;24.47;55.86;99021.33;107270;1254;60397;-39
2023/07/14 08:39:00;;;;;;;6.30;3.50;;;;;;;24.61;56.34;99020.65;107244;1254;72527;-39
2023/07/14 08:41:29;;;;;;;3.80;3.10;;;;;;;24.78;56.35;99023.81;107287;1254;67617;-39
2023/07/14 08:44:20;;;;;;;4.30;2.90;;;;;;;24.91;53.68;99029.25;109056;1253;71493;-40
2023/07/14 08:46:53;;;;;;;4.40;3.20;;;;;;;25.02;52.61;99029.13;109199;1254;58931;-40
2023/07/14 08:49:24;;;;;;;4.80;3.10;;;;;;;25.11;52.87;99029.05;109323;1253;60487;-39
2023/07/14 08:52:03;;;;;;;4.20;3.30;;;;;;;25.24;52.86;99031.06;109190;1253;74129;-40
2023/07/14 08:54:41;;;;;;;4.80;3.00;;;;;;;25.41;52.93;99024.04;109178;1253;67917;-40
2023/07/14 08:57:18;;;;;;;3.50;2.50;;;;;;;25.58;52.53;99025.23;108031;1254;72747;-39
2023/07/14 08:59:45;;;;;;;3.30;2.60;;;;;;;25.77;49.92;99018.52;107346;1254;60533;-39
2023/07/14 09:02:36;;;;;;;4.10;2.60;;;;;;;25.95;48.90;99018.10;107343;1258;60339;-39
2023/07/14 09:05:50;;;;;;;3.70;2.40;;;;;;;26.10;48.10;99017.71;107475;1259;73843;-39
2023/07/14 09:08:17;;;;;;;5.00;2.70;;;;;;;26.18;47.00;99014.50;107035;1260;67611;-40
2023/07/14 09:11:13;;;;;;;5.60;2.50;;;;;;;26.22;46.88;99011.78;106978;1260;71305;-40
2023/07/14 09:13:56;;;;;;;3.50;2.30;;;;;;;26.30;46.87;99007.17;107273;1254;60192;-39
2023/07/14 09:16:24;;;;;;;5.70;2.70;;;;;;;26.40;47.57;99010.02;107353;1254;60113;-39
2023/07/14 09:19:14;;;;;;;8.00;2.50;;;;;;;26.49;45.76;99009.80;107283;1253;73870;-39
2023/07/14 09:21:48;;;;;;;;;;;;;;;26.59;45.60;99011.91;107480;1254;68033;-39
2023/07/14 09:24:38;;;;;;;5.90;2.50;;;;;;;26.58;44.18;99011.09;107446;1254;73763;-39
2023/07/14 09:27:12;;;;;;;3.30;2.30;;;;;;;26.60;44.64;99010.42;107436;1259;60444;-39
2023/07/14 09:29:41;;;;;;;5.20;2.30;;;;;;;26.65;44.84;99009.81;107381;1254;60430;-39
2023/07/14 09:32:25;;;;;;;5.40;3.20;;;;;;;26.73;44.29;99008.29;107201;1253;72670;-39
2023/07/14 09:34:57;;;;;;;8.20;3.90;;;;;;;26.83;44.82;99012.33;107461;1254;67879;-39
2023/07/14 09:37:36;;;;;;;3.60;2.80;;;;;;;26.89;45.19;99012.86;107375;1259;72668;-40
2023/07/14 09:40:11;;;;;;;7.00;2.80;;;;;;;26.95;44.83;99011.52;107478;1253;60398;-39
2023/07/14 09:42:43;;;;;;;3.50;2.30;;;;;;;27.03;45.34;99007.05;107489;1254;60398;-40
2023/07/14 09:45:17;;;;;;;4.20;2.40;;;;;;;27.11;44.85;99009.00;107312;1259;74544;-40
2023/07/14 09:47:46;;;;;;;5.70;2.50;;;;;;;27.20;43.92;99012.05;107544;1253;67885;-40
2023/07/14 09:50:16;;;;;;;4.40;2.50;;;;;;;27.29;43.68;99014.00;107391;1254;72642;-40
2023/07/14 09:53:01;;;;;;;8.20;2.70;;;;;;;27.36;42.99;99009.47;107511;1254;60436;-39
2023/07/14 09:55:30;;;;;;;5.30;2.30;;;;;;;27.44;43.47;99006.10;107445;1254;60264;-39
2023/07/14 09:57:57;;;;;;;4.90;2.60;;;;;;;27.46;42.58;99003.56;107439;1253;72636;-39
2023/07/14 10:00:39;;;;;;;3.30;1.90;;;;;;;27.47;42.47;98999.79;107570;1254;67540;-39
2023/07/14 10:03:09;;;;;;;3.60;2.20;;;;;;;27.50;42.42;99001.36;107606;1254;70712;-39
2023/07/14 10:05:53;;;;;;;3.30;2.40;;;;;;;27.53;41.24;99002.89;107484;1252;60542;-39
2023/07/14 10:08:30;;;;;;;3.50;2.30;;;;;;;27.52;41.68;99001.50;108536;1256;60598;-39
2023/07/14 10:11:04;;;;;;;4.10;2.50;;;;;;;27.58;41.54;99003.10;107578;1254;73863;-39
2023/07/14 10:13:33;;;;;;;5.70;2.50;;;;;;;27.62;40.77;99000.85;107507;1254;68036;-38
2023/07/14 10:16:12;;;;;;;3.60;2.30;;;;;;;27.63;40.91;99005.66;107391;1258;72694;-39
2023/07/14 10:18:51;;;;;;;3.70;2.50;;;;;;;27.59;41.52;99008.69;107486;1256;60449;-39
2023/07/14 10:21:23;;;;;;;;;;;;;;;27.50;41.20;99011.02;107662;1254;60495;-39
2023/07/14 10:24:14;;;;;;;3.50;2.20;;;;;;;27.34;41.11;99012.17;107564;1253;73885;-38
2023/07/14 10:26:48;;;;;;;2.90;2.00;;;;;;;27.19;42.05;99017.30;107506;1252;67576;-39
2023/07/14 10:29:17;;;;;;;4.30;2.40;;;;;;;27.09;41.97;99015.15;107499;1254;71361;-39
2023/07/14 10:32:01;;;;;;;4.50;2.40;;;;;;;27.06;41.72;99019.19;107581;1254;60415;-39
2023/07/14 10:34:49;;;;;;;3.20;2.00;;;;;;;27.06;40.83;99017.56;107505;1252;60549;-38
2023/07/14 10:37:24;;;;;;;6.40;2.40;;;;;;;27.06;40.60;99020.64;107603;1252;73812;-40
2023/07/14 10:40:11;;;;;;;4.30;2.50;;;;;;;27.06;42.02;99019.44;107598;1254;67723;-39
2023/07/14 10:42:42;;;;;;;4.00;2.50;;;;;;;27.09;41.74;99016.88;107407;1253;71914;-40
2023/07/14 10:45:13;;;;;;;4.20;2.10;;;;;;;27.11;41.21;99022.41;107366;1252;60491;-39
2023/07/14 10:47:53;;;;;;;4.40;2.30;;;;;;;27.14;41.69;99024.95;107477;1254;60483;-39
2023/07/14 10:51:07;;;;;;;3.80;2.10;;;;;;;27.15;41.97;99031.45;107488;1254;73847;-40
2023/07/14 10:53:42;;;;;;;2.90;1.80;;;;;;;27.11;42.36;99031.08;107201;1253;66900;-39
2023/07/14 10:56:22;;;;;;;4.20;2.10;;;;;;;27.02;42.41;99034.35;107492;1252;71485;-40
2023/07/14 10:58:55;;;;;;;3.00;2.10;;;;;;;26.93;43.35;99031.41;107544;1253;61153;-39
2023/07/14 11:01:36;;;;;;;3.00;2.00;;;;;;;26.87;43.26;99038.81;107495;1254;60290;-40
2023/07/14 11:04:03;;;;;;;2.30;1.60;;;;;;;26.80;42.68;99039.79;107532;1254;73808;-40
2023/07/14 11:06:31;;;;;;;2.90;2.10;;;;;;;26.75;42.83;99040.54;107474;1254;68169;-39
2023/07/14 11:08:59;;;;;;;5.20;2.30;;;;;;;26.71;42.24;99039.96;107520;1254;72700;-40
2023/07/14 11:11:42;;;;;;;3.90;2.30;;;;;;;26.66;43.08;99039.52;107358;1254;150155;-39
2023/07/14 11:15:28;;;;;;;2.40;2.20;;;;;;;26.63;42.16;99037.08;104169;1292;601582;-39
2023/07/14 11:18:14;;;;;;;9.00;2.50;;;;;;;26.59;42.81;99041.28;106573;1266;59443;-39
2023/07/14 11:21:08;;;;;;;2.60;1.80;;;;;;;26.56;43.18;99046.04;106614;1264;60057;-39
2023/07/14 11:24:14;;;;;;;4.50;2.10;;;;;;;26.51;43.65;99054.92;106570;1266;72269;-39
2023/07/14 11:26:55;;;;;;;3.70;2.30;;;;;;;26.42;43.82;99053.19;106758;1267;66383;-39
2023/07/14 11:29:26;;;;;;;4.30;2.40;;;;;;;26.32;44.11;99053.70;106579;1263;193983;-39
2023/07/14 11:31:58;;;;;;;5.30;2.00;;;;;;;26.26;44.09;99051.70;106890;1262;60285;-40
2023/07/14 11:34:29;;;;;;;4.40;2.00;;;;;;;26.19;44.38;99053.13;106962;1260;60076;-40
2023/07/14 11:37:25;;;;;;;2.70;2.00;;;;;;;26.12;44.84;99055.08;106730;1263;71938;-40
2023/07/14 11:39:56;;;;;;;4.50;2.40;;;;;;;26.06;45.07;99054.34;106752;1265;67593;-40
2023/07/14 11:42:31;;;;;;;4.40;2.80;;;;;;;25.99;45.14;99056.02;106837;1260;72793;-40
2023/07/14 11:45:01;;;;;;;3.00;2.60;;;;;;;25.97;45.05;99056.21;106826;1263;60288;-40